sensor_id;sensor_type;location;lat;lon;timestamp;P1;durP1;ratioP1;P2;durP2;ratioP2
62951;SDS011;52163;52.212;-1.002;2022-07-23T00:02:25;7.30;;;2.60;;
62951;SDS011;52163;52.212;-1.002;2022-07-23T00:04:51;5.80;;;2.60;;
62951;SDS011;52163;52.212;-1.002;2022-07-23T00:07:16;7.40;;;3.20;;
62951;SDS011;52163;52.212;-1.002;2022-07-23T00:09:42;11.30;;;3.20;;
62951;SDS011;52163;52.212;-1.002;2022-07-23T00:12:07;7.20;;;2.40;;
62951;SDS011;52163;52.212;-1.002;2022-07-23T00:14:32;6.90;;;3.00;;
62951;SDS011;52163;52.212;-1.002;2022-07-23T00:16:58;5.80;;;2.90;;
62951;SDS011;52163;52.212;-1.002;2022-07-23T00:19:23;5.40;;;2.60;;
62951;SDS011;52163;52.212;-1.002;2022-07-23T00:21:49;8.20;;;3.00;;
62951;SDS011;52163;52.212;-1.002;2022-07-23T00:24:14;9.80;;;3.30;;
62951;SDS011;52163;52.212;-1.002;2022-07-23T00:26:39;6.40;;;3.10;;
62951;SDS011;52163;52.212;-1.002;2022-07-23T00:29:05;6.90;;;3.20;;
62951;SDS011;52163;52.212;-1.002;2022-07-23T00:31:31;6.10;;;2.50;;
62951;SDS011;52163;52.212;-1.002;2022-07-23T00:33:56;6.70;;;2.40;;
62951;SDS011;52163;52.212;-1.002;2022-07-23T00:36:25;4.20;;;2.60;;
62951;SDS011;52163;52.212;-1.002;2022-07-23T00:38:50;6.40;;;3.10;;
62951;SDS011;52163;52.212;-1.002;2022-07-23T00:41:15;7.10;;;3.30;;
62951;SDS011;52163;52.212;-1.002;2022-07-23T00:43:41;5.10;;;3.00;;
62951;SDS011;52163;52.212;-1.002;2022-07-23T00:46:07;8.70;;;3.00;;
62951;SDS011;52163;52.212;-1.002;2022-07-23T00:48:33;7.70;;;3.30;;
62951;SDS011;52163;52.212;-1.002;2022-07-23T00:50:58;7.70;;;3.20;;
62951;SDS011;52163;52.212;-1.002;2022-07-23T00:53:24;6.80;;;3.20;;
62951;SDS011;52163;52.212;-1.002;2022-07-23T00:55:49;8.80;;;3.70;;
62951;SDS011;52163;52.212;-1.002;2022-07-23T00:58:15;5.80;;;3.80;;
62951;SDS011;52163;52.212;-1.002;2022-07-23T01:00:41;6.00;;;3.10;;
62951;SDS011;52163;52.212;-1.002;2022-07-23T01:03:07;6.70;;;3.10;;
62951;SDS011;52163;52.212;-1.002;2022-07-23T01:05:33;6.00;;;2.90;;
62951;SDS011;52163;52.212;-1.002;2022-07-23T01:07:58;6.20;;;3.00;;
62951;SDS011;52163;52.212;-1.002;2022-07-23T01:10:24;5.40;;;3.40;;
62951;SDS011;52163;52.212;-1.002;2022-07-23T01:12:56;9.10;;;3.70;;
62951;SDS011;52163;52.212;-1.002;2022-07-23T01:15:24;8.60;;;3.70;;
62951;SDS011;52163;52.212;-1.002;2022-07-23T01:17:50;5.10;;;3.50;;
62951;SDS011;52163;52.212;-1.002;2022-07-23T01:20:16;11.90;;;3.70;;
62951;SDS011;52163;52.212;-1.002;2022-07-23T01:22:41;5.30;;;3.30;;
62951;SDS011;52163;52.212;-1.002;2022-07-23T01:25:07;11.00;;;3.50;;
62951;SDS011;52163;52.212;-1.002;2022-07-23T01:27:33;10.80;;;8.00;;
62951;SDS011;52163;52.212;-1.002;2022-07-23T01:30:00;15.30;;;7.10;;
62951;SDS011;52163;52.212;-1.002;2022-07-23T01:32:26;12.60;;;5.60;;
62951;SDS011;52163;52.212;-1.002;2022-07-23T01:34:51;15.10;;;4.90;;
62951;SDS011;52163;52.212;-1.002;2022-07-23T01:37:17;8.80;;;4.80;;
62951;SDS011;52163;52.212;-1.002;2022-07-23T01:39:42;6.00;;;3.50;;
62951;SDS011;52163;52.212;-1.002;2022-07-23T01:42:08;8.70;;;4.20;;
62951;SDS011;52163;52.212;-1.002;2022-07-23T01:44:33;7.10;;;3.60;;
62951;SDS011;52163;52.212;-1.002;2022-07-23T01:46:59;6.20;;;3.70;;
62951;SDS011;52163;52.212;-1.002;2022-07-23T01:49:24;6.80;;;3.70;;
62951;SDS011;52163;52.212;-1.002;2022-07-23T01:51:49;6.40;;;3.90;;
62951;SDS011;52163;52.212;-1.002;2022-07-23T01:54:36;8.70;;;4.30;;
62951;SDS011;52163;52.212;-1.002;2022-07-23T01:57:03;6.40;;;3.60;;
62951;SDS011;52163;52.212;-1.002;2022-07-23T01:59:29;6.10;;;3.70;;
62951;SDS011;52163;52.212;-1.002;2022-07-23T02:01:55;7.70;;;4.00;;
62951;SDS011;52163;52.212;-1.002;2022-07-23T02:04:21;6.40;;;4.10;;
62951;SDS011;52163;52.212;-1.002;2022-07-23T02:06:48;7.00;;;3.90;;
62951;SDS011;52163;52.212;-1.002;2022-07-23T02:09:14;9.30;;;3.60;;
62951;SDS011;52163;52.212;-1.002;2022-07-23T02:11:40;8.50;;;4.00;;
62951;SDS011;52163;52.212;-1.002;2022-07-23T02:14:06;6.90;;;3.70;;
62951;SDS011;52163;52.212;-1.002;2022-07-23T02:16:31;9.40;;;4.20;;
62951;SDS011;52163;52.212;-1.002;2022-07-23T02:18:57;9.20;;;3.40;;
62951;SDS011;52163;52.212;-1.002;2022-07-23T02:21:22;7.00;;;4.10;;
62951;SDS011;52163;52.212;-1.002;2022-07-23T02:23:48;7.00;;;4.10;;
62951;SDS011;52163;52.212;-1.002;2022-07-23T02:26:14;10.80;;;4.10;;
62951;SDS011;52163;52.212;-1.002;2022-07-23T02:28:39;9.80;;;4.90;;
62951;SDS011;52163;52.212;-1.002;2022-07-23T02:31:04;9.30;;;4.00;;
62951;SDS011;52163;52.212;-1.002;2022-07-23T02:33:31;9.60;;;4.60;;
62951;SDS011;52163;52.212;-1.002;2022-07-23T02:35:57;10.10;;;4.90;;
62951;SDS011;52163;52.212;-1.002;2022-07-23T02:38:23;11.80;;;4.70;;
62951;SDS011;52163;52.212;-1.002;2022-07-23T02:40:48;8.40;;;4.20;;
62951;SDS011;52163;52.212;-1.002;2022-07-23T02:43:14;8.90;;;4.40;;
62951;SDS011;52163;52.212;-1.002;2022-07-23T02:45:39;9.80;;;4.30;;
62951;SDS011;52163;52.212;-1.002;2022-07-23T02:48:05;8.40;;;4.30;;
62951;SDS011;52163;52.212;-1.002;2022-07-23T02:50:30;8.30;;;4.20;;
62951;SDS011;52163;52.212;-1.002;2022-07-23T02:52:55;9.00;;;4.20;;
62951;SDS011;52163;52.212;-1.002;2022-07-23T02:55:21;6.60;;;4.70;;
62951;SDS011;52163;52.212;-1.002;2022-07-23T02:57:46;8.70;;;4.60;;
62951;SDS011;52163;52.212;-1.002;2022-07-23T03:00:12;7.10;;;4.60;;
62951;SDS011;52163;52.212;-1.002;2022-07-23T03:02:38;8.00;;;4.60;;
62951;SDS011;52163;52.212;-1.002;2022-07-23T03:05:03;8.80;;;4.30;;
62951;SDS011;52163;52.212;-1.002;2022-07-23T03:07:29;10.20;;;5.00;;
62951;SDS011;52163;52.212;-1.002;2022-07-23T03:09:55;9.30;;;4.90;;
62951;SDS011;52163;52.212;-1.002;2022-07-23T03:12:20;9.80;;;4.40;;
62951;SDS011;52163;52.212;-1.002;2022-07-23T03:14:45;6.80;;;4.60;;
62951;SDS011;52163;52.212;-1.002;2022-07-23T03:17:11;10.50;;;5.70;;
62951;SDS011;52163;52.212;-1.002;2022-07-23T03:19:36;13.10;;;5.30;;
62951;SDS011;52163;52.212;-1.002;2022-07-23T03:22:03;6.90;;;4.10;;
62951;SDS011;52163;52.212;-1.002;2022-07-23T03:24:29;10.90;;;5.00;;
62951;SDS011;52163;52.212;-1.002;2022-07-23T03:27:18;7.70;;;4.60;;
62951;SDS011;52163;52.212;-1.002;2022-07-23T03:29:43;10.50;;;4.30;;
62951;SDS011;52163;52.212;-1.002;2022-07-23T03:32:08;7.90;;;4.80;;
62951;SDS011;52163;52.212;-1.002;2022-07-23T03:34:34;8.20;;;4.90;;
62951;SDS011;52163;52.212;-1.002;2022-07-23T03:37:00;7.90;;;4.80;;
62951;SDS011;52163;52.212;-1.002;2022-07-23T03:39:25;9.00;;;4.70;;
62951;SDS011;52163;52.212;-1.002;2022-07-23T03:41:51;11.80;;;5.50;;
62951;SDS011;52163;52.212;-1.002;2022-07-23T03:44:16;10.20;;;5.40;;
62951;SDS011;52163;52.212;-1.002;2022-07-23T03:46:42;7.50;;;4.40;;
62951;SDS011;52163;52.212;-1.002;2022-07-23T03:49:07;13.70;;;5.50;;
62951;SDS011;52163;52.212;-1.002;2022-07-23T03:51:32;8.60;;;5.80;;
62951;SDS011;52163;52.212;-1.002;2022-07-23T03:53:58;9.40;;;5.50;;
62951;SDS011;52163;52.212;-1.002;2022-07-23T03:56:23;11.10;;;6.00;;
62951;SDS011;52163;52.212;-1.002;2022-07-23T03:58:48;9.70;;;5.60;;
62951;SDS011;52163;52.212;-1.002;2022-07-23T04:01:14;10.80;;;6.40;;
62951;SDS011;52163;52.212;-1.002;2022-07-23T04:03:40;11.20;;;6.10;;
62951;SDS011;52163;52.212;-1.002;2022-07-23T04:06:05;10.90;;;6.70;;
62951;SDS011;52163;52.212;-1.002;2022-07-23T04:08:31;10.80;;;6.70;;
62951;SDS011;52163;52.212;-1.002;2022-07-23T04:10:56;10.70;;;7.00;;
62951;SDS011;52163;52.212;-1.002;2022-07-23T04:13:22;10.90;;;6.40;;
62951;SDS011;52163;52.212;-1.002;2022-07-23T04:15:47;10.70;;;6.70;;
62951;SDS011;52163;52.212;-1.002;2022-07-23T04:18:13;10.50;;;5.80;;
62951;SDS011;52163;52.212;-1.002;2022-07-23T04:20:38;10.90;;;6.70;;
62951;SDS011;52163;52.212;-1.002;2022-07-23T04:23:04;11.00;;;6.20;;
62951;SDS011;52163;52.212;-1.002;2022-07-23T04:25:29;13.40;;;6.30;;
62951;SDS011;52163;52.212;-1.002;2022-07-23T04:27:55;13.10;;;6.60;;
62951;SDS011;52163;52.212;-1.002;2022-07-23T04:30:20;12.70;;;6.80;;
62951;SDS011;52163;52.212;-1.002;2022-07-23T04:32:46;13.40;;;6.80;;
62951;SDS011;52163;52.212;-1.002;2022-07-23T04:35:11;14.00;;;7.30;;
62951;SDS011;52163;52.212;-1.002;2022-07-23T04:37:36;13.60;;;6.80;;
62951;SDS011;52163;52.212;-1.002;2022-07-23T04:40:02;12.70;;;6.80;;
62951;SDS011;52163;52.212;-1.002;2022-07-23T04:42:28;9.70;;;7.00;;
62951;SDS011;52163;52.212;-1.002;2022-07-23T04:44:53;11.20;;;7.00;;
62951;SDS011;52163;52.212;-1.002;2022-07-23T04:47:18;10.80;;;6.50;;
62951;SDS011;52163;52.212;-1.002;2022-07-23T04:49:44;12.20;;;6.80;;
62951;SDS011;52163;52.212;-1.002;2022-07-23T04:52:09;10.20;;;6.60;;
62951;SDS011;52163;52.212;-1.002;2022-07-23T04:54:35;11.60;;;6.80;;
62951;SDS011;52163;52.212;-1.002;2022-07-23T04:57:00;12.40;;;7.20;;
62951;SDS011;52163;52.212;-1.002;2022-07-23T04:59:25;14.10;;;7.80;;
62951;SDS011;52163;52.212;-1.002;2022-07-23T05:01:51;14.70;;;7.70;;
62951;SDS011;52163;52.212;-1.002;2022-07-23T05:04:16;14.60;;;8.10;;
62951;SDS011;52163;52.212;-1.002;2022-07-23T05:06:41;12.50;;;7.20;;
62951;SDS011;52163;52.212;-1.002;2022-07-23T05:09:07;14.50;;;8.60;;
62951;SDS011;52163;52.212;-1.002;2022-07-23T05:11:32;14.10;;;7.80;;
62951;SDS011;52163;52.212;-1.002;2022-07-23T05:13:58;16.00;;;8.10;;
62951;SDS011;52163;52.212;-1.002;2022-07-23T05:16:23;19.10;;;8.00;;
62951;SDS011;52163;52.212;-1.002;2022-07-23T05:18:48;17.30;;;9.60;;
62951;SDS011;52163;52.212;-1.002;2022-07-23T05:21:14;20.50;;;10.30;;
62951;SDS011;52163;52.212;-1.002;2022-07-23T05:23:39;22.50;;;10.60;;
62951;SDS011;52163;52.212;-1.002;2022-07-23T05:26:05;20.70;;;10.20;;
62951;SDS011;52163;52.212;-1.002;2022-07-23T05:28:30;17.00;;;9.20;;
62951;SDS011;52163;52.212;-1.002;2022-07-23T05:30:56;19.70;;;9.70;;
62951;SDS011;52163;52.212;-1.002;2022-07-23T05:33:21;19.70;;;10.50;;
62951;SDS011;52163;52.212;-1.002;2022-07-23T05:35:47;22.60;;;10.90;;
62951;SDS011;52163;52.212;-1.002;2022-07-23T05:38:12;26.80;;;11.90;;
62951;SDS011;52163;52.212;-1.002;2022-07-23T05:40:38;18.30;;;10.90;;
62951;SDS011;52163;52.212;-1.002;2022-07-23T05:43:03;24.00;;;11.30;;
62951;SDS011;52163;52.212;-1.002;2022-07-23T05:45:29;21.20;;;11.00;;
62951;SDS011;52163;52.212;-1.002;2022-07-23T05:47:54;19.50;;;10.40;;
62951;SDS011;52163;52.212;-1.002;2022-07-23T05:50:19;23.00;;;11.80;;
62951;SDS011;52163;52.212;-1.002;2022-07-23T05:52:45;29.10;;;12.30;;
62951;SDS011;52163;52.212;-1.002;2022-07-23T05:55:11;24.20;;;12.40;;
62951;SDS011;52163;52.212;-1.002;2022-07-23T05:57:37;23.40;;;13.00;;
62951;SDS011;52163;52.212;-1.002;2022-07-23T06:00:04;24.00;;;13.00;;
62951;SDS011;52163;52.212;-1.002;2022-07-23T06:02:31;23.40;;;12.80;;
62951;SDS011;52163;52.212;-1.002;2022-07-23T06:04:59;25.60;;;11.80;;
62951;SDS011;52163;52.212;-1.002;2022-07-23T06:07:25;21.80;;;11.40;;
62951;SDS011;52163;52.212;-1.002;2022-07-23T06:09:50;21.80;;;12.10;;
62951;SDS011;52163;52.212;-1.002;2022-07-23T06:12:16;25.90;;;14.60;;
62951;SDS011;52163;52.212;-1.002;2022-07-23T06:14:42;26.00;;;13.90;;
62951;SDS011;52163;52.212;-1.002;2022-07-23T06:17:08;27.00;;;15.30;;
62951;SDS011;52163;52.212;-1.002;2022-07-23T06:19:33;23.60;;;14.60;;
62951;SDS011;52163;52.212;-1.002;2022-07-23T06:21:59;22.00;;;14.20;;
62951;SDS011;52163;52.212;-1.002;2022-07-23T06:24:24;21.80;;;13.10;;
62951;SDS011;52163;52.212;-1.002;2022-07-23T06:26:50;25.60;;;13.70;;
62951;SDS011;52163;52.212;-1.002;2022-07-23T06:29:15;26.40;;;13.30;;
62951;SDS011;52163;52.212;-1.002;2022-07-23T06:31:40;27.90;;;15.30;;
62951;SDS011;52163;52.212;-1.002;2022-07-23T06:34:06;24.70;;;14.60;;
62951;SDS011;52163;52.212;-1.002;2022-07-23T06:36:31;27.10;;;14.20;;
62951;SDS011;52163;52.212;-1.002;2022-07-23T06:38:57;22.70;;;13.40;;
62951;SDS011;52163;52.212;-1.002;2022-07-23T06:41:22;28.30;;;13.60;;
62951;SDS011;52163;52.212;-1.002;2022-07-23T06:43:48;23.30;;;11.60;;
62951;SDS011;52163;52.212;-1.002;2022-07-23T06:46:14;18.50;;;10.60;;
62951;SDS011;52163;52.212;-1.002;2022-07-23T06:48:39;18.50;;;10.40;;
62951;SDS011;52163;52.212;-1.002;2022-07-23T06:51:05;23.80;;;12.50;;
62951;SDS011;52163;52.212;-1.002;2022-07-23T06:53:30;25.60;;;13.20;;
62951;SDS011;52163;52.212;-1.002;2022-07-23T06:55:55;20.40;;;11.50;;
62951;SDS011;52163;52.212;-1.002;2022-07-23T06:58:21;20.10;;;10.80;;
62951;SDS011;52163;52.212;-1.002;2022-07-23T07:00:46;21.60;;;11.50;;
62951;SDS011;52163;52.212;-1.002;2022-07-23T07:03:12;21.40;;;12.00;;
62951;SDS011;52163;52.212;-1.002;2022-07-23T07:05:38;24.00;;;12.10;;
62951;SDS011;52163;52.212;-1.002;2022-07-23T07:08:05;23.10;;;12.70;;
62951;SDS011;52163;52.212;-1.002;2022-07-23T07:10:31;21.00;;;9.90;;
62951;SDS011;52163;52.212;-1.002;2022-07-23T07:12:57;16.60;;;9.90;;
62951;SDS011;52163;52.212;-1.002;2022-07-23T07:15:23;16.50;;;9.80;;
62951;SDS011;52163;52.212;-1.002;2022-07-23T07:17:48;17.80;;;10.10;;
62951;SDS011;52163;52.212;-1.002;2022-07-23T07:20:14;20.10;;;11.50;;
62951;SDS011;52163;52.212;-1.002;2022-07-23T07:22:39;18.90;;;12.00;;
62951;SDS011;52163;52.212;-1.002;2022-07-23T07:25:05;20.60;;;13.20;;
62951;SDS011;52163;52.212;-1.002;2022-07-23T07:27:31;18.30;;;10.10;;
62951;SDS011;52163;52.212;-1.002;2022-07-23T07:29:57;13.60;;;9.50;;
62951;SDS011;52163;52.212;-1.002;2022-07-23T07:32:22;15.90;;;9.10;;
62951;SDS011;52163;52.212;-1.002;2022-07-23T07:34:48;17.20;;;9.10;;
62951;SDS011;52163;52.212;-1.002;2022-07-23T07:37:13;17.00;;;10.00;;
62951;SDS011;52163;52.212;-1.002;2022-07-23T07:39:38;17.60;;;9.30;;
62951;SDS011;52163;52.212;-1.002;2022-07-23T07:42:04;12.10;;;8.40;;
62951;SDS011;52163;52.212;-1.002;2022-07-23T07:44:30;12.90;;;8.30;;
62951;SDS011;52163;52.212;-1.002;2022-07-23T07:46:55;11.20;;;8.10;;
62951;SDS011;52163;52.212;-1.002;2022-07-23T07:49:20;17.80;;;8.70;;
62951;SDS011;52163;52.212;-1.002;2022-07-23T07:51:46;17.70;;;8.30;;
62951;SDS011;52163;52.212;-1.002;2022-07-23T07:54:12;10.50;;;7.00;;
62951;SDS011;52163;52.212;-1.002;2022-07-23T07:56:37;13.00;;;7.60;;
62951;SDS011;52163;52.212;-1.002;2022-07-23T07:59:03;12.70;;;7.40;;
62951;SDS011;52163;52.212;-1.002;2022-07-23T08:01:28;15.80;;;7.70;;
62951;SDS011;52163;52.212;-1.002;2022-07-23T08:03:54;16.10;;;8.50;;
62951;SDS011;52163;52.212;-1.002;2022-07-23T08:06:19;15.00;;;8.60;;
62951;SDS011;52163;52.212;-1.002;2022-07-23T08:08:45;15.20;;;9.00;;
62951;SDS011;52163;52.212;-1.002;2022-07-23T08:11:10;12.00;;;7.60;;
62951;SDS011;52163;52.212;-1.002;2022-07-23T08:13:36;25.10;;;17.20;;
62951;SDS011;52163;52.212;-1.002;2022-07-23T08:16:01;10.00;;;6.90;;
62951;SDS011;52163;52.212;-1.002;2022-07-23T08:18:27;9.90;;;6.20;;
62951;SDS011;52163;52.212;-1.002;2022-07-23T08:20:52;18.10;;;9.90;;
62951;SDS011;52163;52.212;-1.002;2022-07-23T08:23:18;13.80;;;6.50;;
62951;SDS011;52163;52.212;-1.002;2022-07-23T08:25:44;15.80;;;8.20;;
62951;SDS011;52163;52.212;-1.002;2022-07-23T08:28:12;13.40;;;6.20;;
62951;SDS011;52163;52.212;-1.002;2022-07-23T08:30:39;12.60;;;6.90;;
62951;SDS011;52163;52.212;-1.002;2022-07-23T08:33:07;11.50;;;6.40;;
62951;SDS011;52163;52.212;-1.002;2022-07-23T08:35:37;10.10;;;6.20;;
62951;SDS011;52163;52.212;-1.002;2022-07-23T08:38:06;13.50;;;7.80;;
62951;SDS011;52163;52.212;-1.002;2022-07-23T08:40:34;11.50;;;6.20;;
62951;SDS011;52163;52.212;-1.002;2022-07-23T08:43:03;10.90;;;7.00;;
62951;SDS011;52163;52.212;-1.002;2022-07-23T08:45:30;15.70;;;10.00;;
62951;SDS011;52163;52.212;-1.002;2022-07-23T08:48:02;11.20;;;6.50;;
62951;SDS011;52163;52.212;-1.002;2022-07-23T08:50:28;17.30;;;10.20;;
62951;SDS011;52163;52.212;-1.002;2022-07-23T08:52:54;11.70;;;7.90;;
62951;SDS011;52163;52.212;-1.002;2022-07-23T08:55:21;12.10;;;7.40;;
62951;SDS011;52163;52.212;-1.002;2022-07-23T08:57:48;9.80;;;6.50;;
62951;SDS011;52163;52.212;-1.002;2022-07-23T09:00:15;11.80;;;6.60;;
62951;SDS011;52163;52.212;-1.002;2022-07-23T09:02:43;15.20;;;10.00;;
62951;SDS011;52163;52.212;-1.002;2022-07-23T09:05:10;11.60;;;7.40;;
62951;SDS011;52163;52.212;-1.002;2022-07-23T09:07:37;10.90;;;7.10;;
62951;SDS011;52163;52.212;-1.002;2022-07-23T09:10:22;15.30;;;9.10;;
62951;SDS011;52163;52.212;-1.002;2022-07-23T09:12:48;10.70;;;7.40;;
62951;SDS011;52163;52.212;-1.002;2022-07-23T09:15:13;9.90;;;6.60;;
62951;SDS011;52163;52.212;-1.002;2022-07-23T09:17:40;9.00;;;5.60;;
62951;SDS011;52163;52.212;-1.002;2022-07-23T09:20:16;9.40;;;6.10;;
62951;SDS011;52163;52.212;-1.002;2022-07-23T09:22:45;10.10;;;5.50;;
62951;SDS011;52163;52.212;-1.002;2022-07-23T09:25:15;8.80;;;4.90;;
62951;SDS011;52163;52.212;-1.002;2022-07-23T09:30:12;9.70;;;5.50;;
62951;SDS011;52163;52.212;-1.002;2022-07-23T09:32:38;12.00;;;7.20;;
62951;SDS011;52163;52.212;-1.002;2022-07-23T09:35:05;8.20;;;6.10;;
62951;SDS011;52163;52.212;-1.002;2022-07-23T09:37:31;22.50;;;14.20;;
62951;SDS011;52163;52.212;-1.002;2022-07-23T09:40:04;16.20;;;10.60;;
62951;SDS011;52163;52.212;-1.002;2022-07-23T09:42:34;11.70;;;8.30;;
62951;SDS011;52163;52.212;-1.002;2022-07-23T09:45:00;16.70;;;9.60;;
62951;SDS011;52163;52.212;-1.002;2022-07-23T09:47:27;16.10;;;10.00;;
62951;SDS011;52163;52.212;-1.002;2022-07-23T09:50:02;14.50;;;8.50;;
62951;SDS011;52163;52.212;-1.002;2022-07-23T09:52:35;11.40;;;7.50;;
62951;SDS011;52163;52.212;-1.002;2022-07-23T09:55:07;11.70;;;8.10;;
62951;SDS011;52163;52.212;-1.002;2022-07-23T09:57:33;13.90;;;8.10;;
62951;SDS011;52163;52.212;-1.002;2022-07-23T10:00:06;11.40;;;6.70;;
62951;SDS011;52163;52.212;-1.002;2022-07-23T10:02:35;7.10;;;5.00;;
62951;SDS011;52163;52.212;-1.002;2022-07-23T10:05:01;8.20;;;4.30;;
62951;SDS011;52163;52.212;-1.002;2022-07-23T10:07:28;7.40;;;4.10;;
62951;SDS011;52163;52.212;-1.002;2022-07-23T10:09:59;8.60;;;5.50;;
62951;SDS011;52163;52.212;-1.002;2022-07-23T10:12:25;8.00;;;5.00;;
62951;SDS011;52163;52.212;-1.002;2022-07-23T10:15:00;8.90;;;4.50;;
62951;SDS011;52163;52.212;-1.002;2022-07-23T10:17:27;7.10;;;4.30;;
62951;SDS011;52163;52.212;-1.002;2022-07-23T10:19:54;8.40;;;5.70;;
62951;SDS011;52163;52.212;-1.002;2022-07-23T10:22:21;11.40;;;6.80;;
62951;SDS011;52163;52.212;-1.002;2022-07-23T10:24:56;21.60;;;14.10;;
62951;SDS011;52163;52.212;-1.002;2022-07-23T10:27:42;8.00;;;5.20;;
62951;SDS011;52163;52.212;-1.002;2022-07-23T10:33:41;6.40;;;3.90;;
62951;SDS011;52163;52.212;-1.002;2022-07-23T10:41:13;9.30;;;3.90;;
62951;SDS011;52163;52.212;-1.002;2022-07-23T10:43:39;7.50;;;4.40;;
62951;SDS011;52163;52.212;-1.002;2022-07-23T10:46:26;6.60;;;3.10;;
62951;SDS011;52163;52.212;-1.002;2022-07-23T10:49:25;6.20;;;3.60;;
62951;SDS011;52163;52.212;-1.002;2022-07-23T10:54:38;7.90;;;3.30;;
62951;SDS011;52163;52.212;-1.002;2022-07-23T10:57:05;7.50;;;4.00;;
62951;SDS011;52163;52.212;-1.002;2022-07-23T11:02:30;6.80;;;3.10;;
62951;SDS011;52163;52.212;-1.002;2022-07-23T11:05:15;5.40;;;2.70;;
62951;SDS011;52163;52.212;-1.002;2022-07-23T11:10:40;5.40;;;2.70;;
62951;SDS011;52163;52.212;-1.002;2022-07-23T11:13:26;5.90;;;2.50;;
62951;SDS011;52163;52.212;-1.002;2022-07-23T11:26:43;6.70;;;5.20;;
62951;SDS011;52163;52.212;-1.002;2022-07-23T11:31:52;11.50;;;5.80;;
62951;SDS011;52163;52.212;-1.002;2022-07-23T11:34:33;5.00;;;3.50;;
62951;SDS011;52163;52.212;-1.002;2022-07-23T11:37:01;9.90;;;4.70;;
62951;SDS011;52163;52.212;-1.002;2022-07-23T11:39:29;6.50;;;4.10;;
62951;SDS011;52163;52.212;-1.002;2022-07-23T11:41:55;6.50;;;3.80;;
62951;SDS011;52163;52.212;-1.002;2022-07-23T11:47:05;6.50;;;2.80;;
62951;SDS011;52163;52.212;-1.002;2022-07-23T11:49:33;8.50;;;4.60;;
62951;SDS011;52163;52.212;-1.002;2022-07-23T11:52:05;3.80;;;2.60;;
62951;SDS011;52163;52.212;-1.002;2022-07-23T11:54:33;4.30;;;3.00;;
62951;SDS011;52163;52.212;-1.002;2022-07-23T11:57:01;4.60;;;2.50;;
62951;SDS011;52163;52.212;-1.002;2022-07-23T11:59:29;4.60;;;2.90;;
62951;SDS011;52163;52.212;-1.002;2022-07-23T12:01:58;3.70;;;2.50;;
62951;SDS011;52163;52.212;-1.002;2022-07-23T12:09:49;4.40;;;2.60;;
62951;SDS011;52163;52.212;-1.002;2022-07-23T12:12:15;4.10;;;2.20;;
62951;SDS011;52163;52.212;-1.002;2022-07-23T12:14:58;4.70;;;2.90;;
62951;SDS011;52163;52.212;-1.002;2022-07-23T12:17:42;7.60;;;4.60;;
62951;SDS011;52163;52.212;-1.002;2022-07-23T12:20:15;4.10;;;2.40;;
62951;SDS011;52163;52.212;-1.002;2022-07-23T12:22:44;6.20;;;2.40;;
62951;SDS011;52163;52.212;-1.002;2022-07-23T12:27:42;4.20;;;3.20;;
62951;SDS011;52163;52.212;-1.002;2022-07-23T12:30:22;3.70;;;2.30;;
62951;SDS011;52163;52.212;-1.002;2022-07-23T12:32:50;3.80;;;2.70;;
62951;SDS011;52163;52.212;-1.002;2022-07-23T12:35:18;2.40;;;1.40;;
62951;SDS011;52163;52.212;-1.002;2022-07-23T12:37:45;4.10;;;1.80;;
62951;SDS011;52163;52.212;-1.002;2022-07-23T12:40:18;3.90;;;2.10;;
62951;SDS011;52163;52.212;-1.002;2022-07-23T12:43:07;3.20;;;1.70;;
62951;SDS011;52163;52.212;-1.002;2022-07-23T12:45:51;3.60;;;1.80;;
62951;SDS011;52163;52.212;-1.002;2022-07-23T12:48:33;3.70;;;1.80;;
62951;SDS011;52163;52.212;-1.002;2022-07-23T12:51:04;6.10;;;3.40;;
62951;SDS011;52163;52.212;-1.002;2022-07-23T12:53:47;5.60;;;3.30;;
62951;SDS011;52163;52.212;-1.002;2022-07-23T12:56:15;5.70;;;3.40;;
62951;SDS011;52163;52.212;-1.002;2022-07-23T13:04:01;7.50;;;5.50;;
62951;SDS011;52163;52.212;-1.002;2022-07-23T13:06:39;5.80;;;3.80;;
62951;SDS011;52163;52.212;-1.002;2022-07-23T13:09:12;7.00;;;4.80;;
62951;SDS011;52163;52.212;-1.002;2022-07-23T13:11:39;5.40;;;3.70;;
62951;SDS011;52163;52.212;-1.002;2022-07-23T13:14:06;5.20;;;2.40;;
62951;SDS011;52163;52.212;-1.002;2022-07-23T13:16:31;4.60;;;3.40;;
62951;SDS011;52163;52.212;-1.002;2022-07-23T13:18:58;4.40;;;2.00;;
62951;SDS011;52163;52.212;-1.002;2022-07-23T13:21:25;5.60;;;2.30;;
62951;SDS011;52163;52.212;-1.002;2022-07-23T13:23:53;4.40;;;2.30;;
62951;SDS011;52163;52.212;-1.002;2022-07-23T13:26:19;5.70;;;2.40;;
62951;SDS011;52163;52.212;-1.002;2022-07-23T13:28:44;3.50;;;2.40;;
62951;SDS011;52163;52.212;-1.002;2022-07-23T13:31:10;4.90;;;2.80;;
62951;SDS011;52163;52.212;-1.002;2022-07-23T13:33:35;3.50;;;2.10;;
62951;SDS011;52163;52.212;-1.002;2022-07-23T13:36:01;3.80;;;2.40;;
62951;SDS011;52163;52.212;-1.002;2022-07-23T13:38:27;6.80;;;5.10;;
62951;SDS011;52163;52.212;-1.002;2022-07-23T13:40:53;5.40;;;3.50;;
62951;SDS011;52163;52.212;-1.002;2022-07-23T13:43:23;6.80;;;3.50;;
62951;SDS011;52163;52.212;-1.002;2022-07-23T13:45:50;4.40;;;2.80;;
62951;SDS011;52163;52.212;-1.002;2022-07-23T13:48:17;5.90;;;3.50;;
62951;SDS011;52163;52.212;-1.002;2022-07-23T13:50:43;4.10;;;1.90;;
62951;SDS011;52163;52.212;-1.002;2022-07-23T13:53:11;2.90;;;1.70;;
62951;SDS011;52163;52.212;-1.002;2022-07-23T13:55:39;4.80;;;3.80;;
62951;SDS011;52163;52.212;-1.002;2022-07-23T13:58:06;6.50;;;4.70;;
62951;SDS011;52163;52.212;-1.002;2022-07-23T14:00:33;6.70;;;4.00;;
62951;SDS011;52163;52.212;-1.002;2022-07-23T14:03:00;3.70;;;2.30;;
62951;SDS011;52163;52.212;-1.002;2022-07-23T14:05:26;6.40;;;4.00;;
62951;SDS011;52163;52.212;-1.002;2022-07-23T14:07:52;4.30;;;2.80;;
62951;SDS011;52163;52.212;-1.002;2022-07-23T14:10:18;9.50;;;6.90;;
62951;SDS011;52163;52.212;-1.002;2022-07-23T14:12:45;11.50;;;8.20;;
62951;SDS011;52163;52.212;-1.002;2022-07-23T14:15:12;8.10;;;5.40;;
62951;SDS011;52163;52.212;-1.002;2022-07-23T14:17:39;11.50;;;8.30;;
62951;SDS011;52163;52.212;-1.002;2022-07-23T14:20:07;7.80;;;5.90;;
62951;SDS011;52163;52.212;-1.002;2022-07-23T14:22:33;10.10;;;6.70;;
62951;SDS011;52163;52.212;-1.002;2022-07-23T14:24:59;11.50;;;9.90;;
62951;SDS011;52163;52.212;-1.002;2022-07-23T14:27:25;10.00;;;6.90;;
62951;SDS011;52163;52.212;-1.002;2022-07-23T14:29:53;6.60;;;4.10;;
62951;SDS011;52163;52.212;-1.002;2022-07-23T14:32:19;11.00;;;7.20;;
62951;SDS011;52163;52.212;-1.002;2022-07-23T14:34:45;7.70;;;5.70;;
62951;SDS011;52163;52.212;-1.002;2022-07-23T14:37:10;7.50;;;5.50;;
62951;SDS011;52163;52.212;-1.002;2022-07-23T14:39:40;6.70;;;4.20;;
62951;SDS011;52163;52.212;-1.002;2022-07-23T14:42:06;6.40;;;5.00;;
62951;SDS011;52163;52.212;-1.002;2022-07-23T14:44:33;4.10;;;2.80;;
62951;SDS011;52163;52.212;-1.002;2022-07-23T14:46:59;3.40;;;2.40;;
62951;SDS011;52163;52.212;-1.002;2022-07-23T14:49:25;4.20;;;2.50;;
62951;SDS011;52163;52.212;-1.002;2022-07-23T14:51:51;5.70;;;3.50;;
62951;SDS011;52163;52.212;-1.002;2022-07-23T14:54:17;4.30;;;2.40;;
62951;SDS011;52163;52.212;-1.002;2022-07-23T14:56:44;6.30;;;3.60;;
62951;SDS011;52163;52.212;-1.002;2022-07-23T14:59:10;3.40;;;2.40;;
62951;SDS011;52163;52.212;-1.002;2022-07-23T15:01:36;4.40;;;3.00;;
62951;SDS011;52163;52.212;-1.002;2022-07-23T15:04:02;4.00;;;1.90;;
62951;SDS011;52163;52.212;-1.002;2022-07-23T15:06:28;3.50;;;1.60;;
62951;SDS011;52163;52.212;-1.002;2022-07-23T15:08:54;3.40;;;2.40;;
62951;SDS011;52163;52.212;-1.002;2022-07-23T15:11:20;3.10;;;2.10;;
62951;SDS011;52163;52.212;-1.002;2022-07-23T15:13:45;2.90;;;1.70;;
62951;SDS011;52163;52.212;-1.002;2022-07-23T15:16:11;5.50;;;2.40;;